Time;durP1;ratioP1;P1;durP2;ratioP2;P2;SDS_P1;SDS_P2;PMS_P1;PMS_P2;Temp;Humidity;BMP_temperature;BMP_pressure;BME280_temperature;BME280_humidity;BME280_pressure;Samples;Min_cycle;Max_cycle;Signal;HPM_P1;HPM_P2
2021/05/13 00:01:12;;;;;;;6.25;3.40;;;;;;;;;;6317425;28;20086;-80
2021/05/13 00:04:12;;;;;;;4.30;3.40;;;7.90;99.90;;;;;;6316920;28;20047;-80
2021/05/13 00:07:13;;;;;;;4.68;3.53;;;;;;;;;;6316969;28;20087;-80
2021/05/13 00:10:17;;;;;;;10.05;3.45;;;8.20;99.90;;;;;;6317332;28;20373;-79
2021/05/13 00:13:17;;;;;;;5.55;3.42;;;7.80;99.90;;;;;;6300677;28;20016;-80
2021/05/13 00:16:21;;;;;;;4.82;3.20;;;;;;;;;;6283314;28;20501;-80
2021/05/13 00:19:21;;;;;;;6.25;3.30;;;8.20;99.90;;;;;;6318717;28;20103;-80
2021/05/13 00:22:24;;;;;;;4.80;3.60;;;7.80;99.90;;;;;;6318195;28;20038;-80
2021/05/13 00:25:25;;;;;;;3.60;3.30;;;8.10;99.90;;;;;;6300585;28;20027;-81
2021/05/13 00:28:26;;;;;;;5.95;2.92;;;;;;;;;;6318125;28;20040;-80
2021/05/13 00:31:27;;;;;;;5.93;3.53;;;8.00;99.90;;;;;;6318195;28;20374;-81
2021/05/13 00:34:27;;;;;;;5.10;3.13;;;7.90;99.90;;;;;;6318211;28;20028;-80
2021/05/13 00:37:28;;;;;;;4.72;3.13;;;7.80;99.90;;;;;;6283280;28;20062;-80
2021/05/13 00:40:28;;;;;;;5.45;3.22;;;8.00;99.90;;;;;;6299899;28;20054;-80
2021/05/13 00:43:29;;;;;;;4.50;3.42;;;8.10;99.90;;;;;;6317730;28;20036;-81
2021/05/13 00:46:30;;;;;;;4.55;3.42;;;8.20;99.90;;;;;;6316625;28;20569;-82
2021/05/13 00:49:31;;;;;;;5.10;3.30;;;7.90;99.90;;;;;;6332839;28;20043;-81
2021/05/13 00:52:33;;;;;;;5.22;4.05;;;;;;;;;;6317726;28;20028;-81
2021/05/13 00:55:34;;;;;;;7.78;4.85;;;7.80;99.90;;;;;;6299623;28;20035;-81
2021/05/13 00:58:37;;;;;;;5.93;4.10;;;;;;;;;;6283228;28;20465;-80
2021/05/13 01:04:44;;;;;;;6.22;5.18;;;;;;;;;;6300754;28;20542;-80
2021/05/13 01:07:45;;;;;;;8.00;4.25;;;;;;;;;;6317721;28;20097;-80
2021/05/13 01:10:46;;;;;;;13.43;5.68;;;;;;;;;;6316143;28;20016;-80
2021/05/13 01:13:58;;;;;;;5.28;3.78;;;;;;;;;;6317627;28;20032;-81
2021/05/13 01:17:04;;;;;;;7.40;4.63;;;7.20;99.90;;;;;;6318516;28;20028;-80
2021/05/13 01:20:05;;;;;;;9.05;5.38;;;7.40;99.90;;;;;;6305262;28;20038;-81
2021/05/13 01:23:10;;;;;;;6.55;4.28;;;7.90;99.90;;;;;;6304102;28;20483;-80
2021/05/13 01:26:11;;;;;;;6.80;3.60;;;;;;;;;;6305208;28;20028;-80
2021/05/13 01:29:14;;;;;;;5.20;3.17;;;7.40;99.90;;;;;;6320772;28;20084;-80
2021/05/13 01:32:15;;;;;;;6.72;3.22;;;;;;;;;;6304161;28;20115;-80
2021/05/13 01:35:16;;;;;;;7.00;3.30;;;;;;;;;;6303835;28;20024;-81
2021/05/13 01:38:19;;;;;;;4.57;3.28;;;7.30;99.90;;;;;;6320640;28;20063;-80
2021/05/13 01:41:20;;;;;;;6.57;3.00;;;;;;;;;;6303897;28;20038;-80
2021/05/13 01:44:21;;;;;;;7.75;3.45;;;7.20;99.90;;;;;;6322004;28;20065;-80
2021/05/13 01:47:21;;;;;;;5.47;3.83;;;7.40;99.90;;;;;;6304038;28;20044;-80
2021/05/13 01:50:22;;;;;;;4.55;3.40;;;;;;;;;;6303447;28;20028;-80
2021/05/13 01:53:23;;;;;;;4.93;3.65;;;7.30;99.90;;;;;;6320090;28;20024;-81
2021/05/13 01:56:23;;;;;;;4.72;3.40;;;7.40;99.90;;;;;;6320460;28;20088;-81
2021/05/13 01:59:24;;;;;;;4.43;3.13;;;7.30;99.90;;;;;;6321622;28;20040;-81
2021/05/13 02:02:25;;;;;;;5.25;3.70;;;;;;;;;;6303610;28;20417;-81
2021/05/13 02:05:26;;;;;;;7.55;3.70;;;;;;;;;;6320284;28;20024;-80
2021/05/13 02:08:26;;;;;;;5.22;3.90;;;7.40;99.90;;;;;;6319603;28;20127;-80
2021/05/13 02:11:27;;;;;;;3.90;3.13;;;;;;;;;;6321630;28;20028;-80
2021/05/13 02:14:28;;;;;;;4.55;3.38;;;7.40;99.90;;;;;;6321549;28;20630;-81
2021/05/13 02:17:29;;;;;;;5.57;3.55;;;;;;;;;;6302905;28;20063;-81
2021/05/13 02:20:30;;;;;;;4.70;3.30;;;;;;;;;;6302990;28;20036;-81
2021/05/13 02:23:31;;;;;;;7.53;3.58;;;7.60;99.90;;;;;;6319485;28;20032;-81
2021/05/13 02:26:32;;;;;;;4.40;3.42;;;;;;;;;;6319806;28;20047;-80
2021/05/13 02:29:32;;;;;;;5.95;3.42;;;7.70;99.90;;;;;;6318242;28;20457;-80
2021/05/13 02:32:33;;;;;;;4.85;3.60;;;;;;;;;;6302565;28;20079;-81
2021/05/13 02:35:34;;;;;;;6.32;3.53;;;;;;;;;;6319328;28;20058;-81
2021/05/13 02:38:35;;;;;;;3.78;3.20;;;7.60;99.90;;;;;;6319417;28;21193;-81
2021/05/13 02:41:36;;;;;;;6.10;3.53;;;7.50;99.90;;;;;;6302534;28;20020;-81
2021/05/13 02:44:37;;;;;;;4.78;3.70;;;;;;;;;;6319341;28;20386;-80
2021/05/13 02:47:38;;;;;;;4.53;2.95;;;;;;;;;;6320278;28;20028;-81
2021/05/13 02:50:38;;;;;;;4.28;2.88;;;7.70;99.90;;;;;;6319383;28;20048;-81
2021/05/13 02:53:39;;;;;;;3.95;3.13;;;;;;;;;;6302259;28;20028;-80
2021/05/13 02:56:41;;;;;;;3.90;3.17;;;;;;;;;;6318980;28;20020;-81
2021/05/13 02:59:48;;;;;;;4.10;2.90;;;;;;;;;;6319472;28;20454;-80
2021/05/13 03:02:49;;;;;;;5.32;3.40;;;7.60;99.90;;;;;;6320094;28;20720;-80
2021/05/13 03:05:52;;;;;;;5.55;3.38;;;;;;;;;;6319948;28;20601;-80
2021/05/13 03:08:57;;;;;;;5.97;3.20;;;7.80;99.90;;;;;;6318187;28;20040;-81
2021/05/13 03:11:58;;;;;;;6.00;3.42;;;;;;;;;;6318813;28;20020;-81
2021/05/13 03:14:59;;;;;;;4.25;3.08;;;;;;;;;;6319770;28;20036;-80
2021/05/13 03:18:00;;;;;;;6.32;3.10;;;7.80;99.90;;;;;;6318835;28;20028;-80
2021/05/13 03:21:09;;;;;;;5.03;3.53;;;;;;;;;;6301833;28;20024;-80
2021/05/13 03:30:26;;;;;;;4.97;3.47;;;7.60;99.90;;;;;;6303301;28;20028;-80
2021/05/13 03:33:27;;;;;;;4.15;3.40;;;7.70;99.90;;;;;;6301459;28;20047;-80
2021/05/13 03:36:30;;;;;;;6.10;3.75;;;7.60;99.90;;;;;;6301798;28;20028;-80
2021/05/13 03:39:32;;;;;;;7.45;3.42;;;7.30;99.90;;;;;;6302266;28;20039;-80
2021/05/13 03:42:32;;;;;;;7.13;3.40;;;7.70;99.90;;;;;;6301438;28;20054;-80
2021/05/13 03:45:34;;;;;;;4.80;3.00;;;;;;;;;;6319265;28;20029;-81
2021/05/13 03:48:35;;;;;;;4.07;2.80;;;7.60;99.90;;;;;;6318060;28;20042;-81
2021/05/13 03:51:35;;;;;;;4.60;3.10;;;7.80;99.90;;;;;;6301022;28;20503;-80
2021/05/13 03:54:36;;;;;;;5.90;2.97;;;7.90;99.90;;;;;;6317803;28;20082;-80
2021/05/13 03:57:37;;;;;;;7.05;2.92;;;7.90;99.90;;;;;;6318053;28;20035;-81
2021/05/13 04:00:45;;;;;;;4.03;3.20;;;;;;;;;;6301155;28;20021;-80
2021/05/13 04:03:46;;;;;;;4.15;3.33;;;7.60;99.90;;;;;;6317770;28;20059;-80
2021/05/13 04:06:47;;;;;;;4.45;3.15;;;;;;;;;;6300710;28;20036;-81
2021/05/13 04:09:48;;;;;;;4.32;3.03;;;;;;;;;;6317469;28;20032;-80
2021/05/13 04:12:52;;;;;;;4.00;3.20;;;7.70;99.90;;;;;;6317513;28;20028;-81
2021/05/13 04:15:53;;;;;;;6.32;5.00;;;8.00;99.90;;;;;;6317454;28;20132;-81
2021/05/13 04:18:54;;;;;;;4.32;3.08;;;;;;;;;;6317548;28;20024;-81
2021/05/13 04:21:54;;;;;;;10.73;8.13;;;8.20;99.90;;;;;;6317459;28;20031;-80
2021/05/13 04:24:55;;;;;;;7.05;5.60;;;;;;;;;;6317167;28;20067;-80
2021/05/13 04:27:56;;;;;;;8.10;4.70;;;8.10;99.90;;;;;;6316636;28;20035;-80
2021/05/13 04:30:57;;;;;;;6.63;3.92;;;7.90;99.90;;;;;;6316918;28;20024;-81
2021/05/13 04:33:57;;;;;;;4.68;3.80;;;8.10;99.90;;;;;;6300187;28;20103;-80
2021/05/13 04:36:58;;;;;;;10.35;6.18;;;8.30;99.90;;;;;;6300152;28;20032;-81
2021/05/13 04:39:58;;;;;;;5.70;4.22;;;8.00;99.90;;;;;;6283596;28;20040;-81
2021/05/13 04:42:59;;;;;;;5.45;3.00;;;8.20;99.90;;;;;;6316720;28;20035;-80
2021/05/13 04:46:00;;;;;;;10.88;6.70;;;8.30;99.90;;;;;;6316704;28;20032;-81
2021/05/13 04:52:01;;;;;;;6.97;3.08;;;8.30;99.90;;;;;;6316304;28;20027;-80
2021/05/13 04:55:03;;;;;;;6.28;2.92;;;8.30;99.90;;;;;;6316661;28;20051;-82
2021/05/13 04:58:03;;;;;;;4.53;3.05;;;8.30;99.90;;;;;;6316855;28;20028;-81
2021/05/13 05:01:04;;;;;;;4.32;3.05;;;8.50;99.90;;;;;;6316887;28;20099;-81
2021/05/13 05:04:04;;;;;;;5.05;3.40;;;8.60;99.90;;;;;;6318251;28;20450;-80
2021/05/13 05:07:05;;;;;;;18.75;12.35;;;8.60;99.90;;;;;;6316480;28;20102;-81
2021/05/13 05:10:06;;;;;;;29.40;15.93;;;8.70;99.90;;;;;;6316618;28;20036;-81
2021/05/13 05:13:07;;;;;;;44.95;22.65;;;8.90;99.90;;;;;;6283383;28;20608;-80
2021/05/13 05:16:08;;;;;;;9.60;5.13;;;8.70;99.90;;;;;;6316772;28;20036;-80
2021/05/13 05:19:08;;;;;;;16.73;9.27;;;8.80;99.90;;;;;;6317258;28;20039;-81
2021/05/13 05:22:09;;;;;;;21.92;10.43;;;8.70;99.90;;;;;;6298824;28;20063;-81
2021/05/13 05:25:10;;;;;;;5.95;3.58;;;8.80;99.90;;;;;;6299770;28;20036;-81
2021/05/13 05:28:10;;;;;;;6.13;4.07;;;9.10;99.90;;;;;;6299169;28;20040;-81
2021/05/13 05:31:11;;;;;;;4.15;3.10;;;9.20;99.90;;;;;;6298634;28;20377;-80
2021/05/13 05:34:12;;;;;;;5.53;3.60;;;;;;;;;;6299399;28;20081;-80
2021/05/13 05:37:13;;;;;;;5.90;3.63;;;9.30;99.90;;;;;;6317513;28;20050;-80
2021/05/13 05:40:16;;;;;;;7.95;4.10;;;9.30;99.90;;;;;;6316246;28;20062;-80
2021/05/13 05:43:17;;;;;;;4.85;3.60;;;9.30;99.90;;;;;;6299582;28;20450;-80
2021/05/13 05:46:18;;;;;;;5.35;2.85;;;;;;;;;;6316327;28;20043;-80
2021/05/13 05:49:18;;;;;;;3.92;2.70;;;9.80;99.90;;;;;;6315648;28;20073;-80
2021/05/13 05:52:19;;;;;;;7.50;3.30;;;9.60;99.90;;;;;;6316172;28;20043;-80
2021/05/13 05:55:19;;;;;;;3.17;2.70;;;9.50;99.90;;;;;;6315965;28;20039;-80
2021/05/13 05:58:20;;;;;;;4.10;2.80;;;9.70;99.90;;;;;;6282210;28;20070;-81
2021/05/13 06:01:21;;;;;;;8.05;3.15;;;10.30;99.90;;;;;;6314899;28;20473;-81
2021/05/13 06:04:22;;;;;;;4.55;3.00;;;;;;;;;;6318640;28;20070;-81
2021/05/13 06:07:23;;;;;;;6.63;4.32;;;;;;;;;;6320147;28;20075;-81
2021/05/13 06:10:23;;;;;;;4.32;3.33;;;10.10;99.90;;;;;;6321646;28;20028;-81
2021/05/13 06:13:24;;;;;;;7.20;3.67;;;;;;;;;;6320156;28;20036;-81
2021/05/13 06:16:25;;;;;;;4.85;3.22;;;10.30;99.90;;;;;;6320167;28;20052;-80
2021/05/13 06:19:25;;;;;;;3.80;3.33;;;10.50;99.90;;;;;;6303324;28;20046;-80
2021/05/13 06:22:27;;;;;;;4.47;3.13;;;11.60;99.90;;;;;;6302851;28;20028;-80
2021/05/13 06:25:28;;;;;;;4.13;2.70;;;;;;;;;;6319871;28;20545;-83
2021/05/13 06:28:29;;;;;;;4.07;2.97;;;12.70;99.90;;;;;;6303362;28;20052;-84
2021/05/13 06:31:30;;;;;;;3.95;2.90;;;;;;;;;;6285265;28;20051;-85
2021/05/13 06:34:31;;;;;;;5.07;2.83;;;13.90;99.90;;;;;;6320676;28;20365;-83
2021/05/13 06:37:32;;;;;;;3.20;2.42;;;14.30;99.90;;;;;;6310894;28;20036;-83
2021/05/13 06:40:32;;;;;;;2.92;2.63;;;14.90;99.90;;;;;;6286326;28;20032;-84
2021/05/13 06:43:33;;;;;;;4.20;2.80;;;15.80;99.90;;;;;;6318979;28;20474;-81
2021/05/13 06:46:35;;;;;;;6.35;2.88;;;;;;;;;;6319557;28;20623;-82
2021/05/13 06:49:36;;;;;;;3.55;2.50;;;;;;;;;;6319239;28;20032;-81
2021/05/13 06:52:38;;;;;;;4.28;2.80;;;;;;;;;;6302452;28;20032;-85
2021/05/13 06:55:39;;;;;;;4.78;3.00;;;;;;;;;;6302700;28;20115;-84
2021/05/13 06:58:40;;;;;;;3.58;2.78;;;;;;;;;;6318841;28;20458;-84
2021/05/13 07:01:43;;;;;;;4.82;3.17;;;15.90;99.90;;;;;;6317814;28;20024;-82
2021/05/13 07:04:44;;;;;;;5.57;3.05;;;15.70;99.90;;;;;;6318473;28;20779;-79
2021/05/13 07:07:44;;;;;;;5.30;3.80;;;15.90;98.60;;;;;;6318342;28;20119;-80
2021/05/13 07:10:48;;;;;;;7.75;4.00;;;15.10;92.00;;;;;;6318930;28;20099;-84
2021/05/13 07:13:49;;;;;;;8.63;4.50;;;15.10;99.90;;;;;;6319554;28;20044;-80
2021/05/13 07:16:50;;;;;;;6.13;4.00;;;;;;;;;;6285248;28;20051;-80
2021/05/13 07:19:50;;;;;;;5.53;4.25;;;14.50;93.80;;;;;;6318744;28;20028;-80
2021/05/13 07:22:52;;;;;;;5.68;3.95;;;;;;;;;;6319415;28;20035;-79
2021/05/13 07:25:55;;;;;;;8.95;4.32;;;;;;;;;;6319846;28;20573;-80
2021/05/13 07:28:55;;;;;;;9.02;4.35;;;14.50;94.40;;;;;;6318483;28;20398;-80
2021/05/13 07:31:56;;;;;;;6.85;3.60;;;14.90;99.90;;;;;;6318435;28;20077;-80
2021/05/13 07:34:57;;;;;;;3.78;3.00;;;;;;;;;;6318434;28;20465;-80
2021/05/13 07:37:58;;;;;;;4.30;3.38;;;15.40;99.90;;;;;;6319210;28;20028;-80
2021/05/13 07:41:03;;;;;;;6.18;2.83;;;15.40;94.90;;;;;;6318233;28;20031;-80
2021/05/13 07:44:04;;;;;;;5.90;3.17;;;15.40;99.90;;;;;;6301499;28;20032;-79
2021/05/13 07:47:04;;;;;;;5.05;2.70;;;16.00;93.70;;;;;;6300885;28;20531;-81
2021/05/13 07:50:10;;;;;;;5.20;2.83;;;16.00;99.90;;;;;;6317888;28;20020;-80
2021/05/13 07:53:10;;;;;;;3.28;2.38;;;16.50;93.40;;;;;;6301145;28;20032;-81
2021/05/13 07:56:11;;;;;;;5.70;2.97;;;;;;;;;;6317915;28;20035;-81
2021/05/13 07:59:12;;;;;;;5.07;2.22;;;16.70;91.90;;;;;;6317657;28;20098;-82
2021/05/13 08:02:13;;;;;;;3.95;2.40;;;17.20;92.30;;;;;;6319386;28;20027;-81
2021/05/13 08:05:14;;;;;;;3.55;1.80;;;;;;;;;;6300037;28;20028;-81
2021/05/13 08:08:14;;;;;;;3.45;2.00;;;15.50;94.20;;;;;;6300270;28;20059;-81
2021/05/13 08:11:15;;;;;;;2.92;1.85;;;15.20;99.90;;;;;;6318460;28;20032;-81
2021/05/13 08:14:16;;;;;;;4.47;2.00;;;;;;;;;;6283974;28;20032;-81
2021/05/13 08:17:16;;;;;;;3.28;1.90;;;15.00;90.70;;;;;;6316607;28;20031;-80
2021/05/13 08:20:18;;;;;;;2.78;1.88;;;;;;;;;;6300122;28;20024;-81
2021/05/13 08:23:18;;;;;;;3.03;1.90;;;15.00;90.00;;;;;;6300625;28;20024;-80
2021/05/13 08:26:19;;;;;;;3.15;2.03;;;15.00;92.00;;;;;;6315555;28;20119;-79
2021/05/13 08:29:20;;;;;;;2.00;1.80;;;15.10;93.20;;;;;;6317153;28;20120;-80
2021/05/13 08:32:20;;;;;;;2.00;1.60;;;14.70;99.90;;;;;;6299763;28;20032;-81
2021/05/13 08:35:21;;;;;;;1.83;1.73;;;;;;;;;;6318326;28;20024;-80
2021/05/13 08:38:22;;;;;;;1.95;1.80;;;14.50;90.60;;;;;;6316770;28;20020;-82
2021/05/13 08:41:22;;;;;;;1.52;1.42;;;14.50;99.70;;;;;;6283259;28;20062;-81
2021/05/13 08:44:23;;;;;;;2.42;1.85;;;14.20;99.90;;;;;;6299714;28;20054;-80
2021/05/13 08:47:24;;;;;;;2.50;1.55;;;;;;;;;;6298903;28;20158;-82
2021/05/13 08:50:25;;;;;;;0.90;0.90;;;13.80;99.90;;;;;;6299645;28;20024;-82
2021/05/13 08:53:26;;;;;;;1.30;1.00;;;;;;;;;;6299390;28;20040;-81
2021/05/13 08:56:27;;;;;;;0.95;0.95;;;13.70;99.90;;;;;;6317055;28;20103;-81
2021/05/13 08:59:29;;;;;;;1.52;1.42;;;;;;;;;;6299865;28;20029;-81
2021/05/13 09:02:30;;;;;;;1.58;1.35;;;13.60;99.90;;;;;;6299940;28;20047;-81
2021/05/13 09:05:31;;;;;;;1.75;1.08;;;13.70;96.10;;;;;;6315659;28;20111;-82
2021/05/13 09:08:32;;;;;;;2.05;1.40;;;;;;;;;;6315990;28;20052;-82
2021/05/13 09:11:33;;;;;;;1.50;1.27;;;;;;;;;;6316245;28;20031;-81
2021/05/13 09:14:33;;;;;;;0.98;0.98;;;13.70;99.90;;;;;;6316498;28;20055;-81
2021/05/13 09:17:34;;;;;;;0.82;0.82;;;13.80;99.90;;;;;;6281495;28;20024;-83
2021/05/13 09:20:38;;;;;;;1.60;1.08;;;13.80;99.90;;;;;;6298899;28;20055;-81
2021/05/13 09:23:39;;;;;;;2.55;0.98;;;;;;;;;;6298954;28;20032;-81
2021/05/13 09:26:40;;;;;;;0.63;0.63;;;;;;;;;;6312890;28;20390;-82
2021/05/13 09:29:41;;;;;;;1.27;1.00;;;;;;;;;;6315276;28;20082;-82
2021/05/13 09:32:43;;;;;;;1.02;0.95;;;13.40;99.90;;;;;;6314969;28;20073;-82
2021/05/13 09:35:46;;;;;;;0.85;0.85;;;;;;;;;;6298583;28;20020;-81
2021/05/13 09:38:47;;;;;;;0.80;0.80;;;;;;;;;;6320916;28;20028;-81
2021/05/13 09:42:03;;;;;;;0.80;0.80;;;13.50;99.50;;;;;;6319433;28;20012;-81
2021/05/13 09:45:06;;;;;;;2.80;1.15;;;13.00;94.70;;;;;;6319448;28;20476;-82
2021/05/13 09:48:06;;;;;;;;;;;13.00;94.60;;;;;;6303508;28;20042;-82
2021/05/13 09:51:21;;;;;;;1.67;1.58;;;12.70;99.90;;;;;;6302856;28;19912;-81
2021/05/13 09:54:22;;;;;;;0.70;0.70;;;;;;;;;;6303995;28;20462;-82
2021/05/13 09:57:29;;;;;;;1.35;1.25;;;13.10;99.90;;;;;;6319568;28;20053;-81
2021/05/13 10:00:41;;;;;;;0.90;0.90;;;13.00;95.80;;;;;;6303592;28;20043;-82
2021/05/13 10:03:42;;;;;;;1.27;1.07;;;13.40;99.90;;;;;;6303118;28;20059;-82
2021/05/13 10:06:43;;;;;;;0.90;0.90;;;13.40;95.10;;;;;;6303067;28;20059;-81
2021/05/13 10:09:46;;;;;;;0.70;0.70;;;13.70;99.90;;;;;;6302999;28;20294;-80
2021/05/13 10:12:47;;;;;;;0.88;0.88;;;13.80;99.90;;;;;;6293149;28;20385;-81
2021/05/13 10:15:48;;;;;;;0.75;0.75;;;;;;;;;;6319418;28;20032;-82
2021/05/13 10:18:51;;;;;;;6.22;1.33;;;14.10;93.80;;;;;;6319740;28;20028;-80
2021/05/13 10:21:53;;;;;;;0.75;0.75;;;14.30;93.00;;;;;;6302495;28;20492;-81
2021/05/13 10:25:22;;;;;;;1.48;1.20;;;14.40;99.90;;;;;;6302546;28;20024;-81
2021/05/13 10:28:27;;;;;;;1.02;1.00;;;15.00;99.90;;;;;;6293757;28;20047;-80
2021/05/13 10:31:35;;;;;;;1.55;1.15;;;;;;;;;;6285723;28;20111;-81
2021/05/13 10:34:45;;;;;;;2.55;1.80;;;;;;;;;;6318645;28;20024;-83
2021/05/13 10:37:53;;;;;;;1.00;0.98;;;14.30;95.40;;;;;;6319492;28;20032;-80
2021/05/13 10:41:03;;;;;;;1.50;1.40;;;14.10;99.40;;;;;;6303108;28;20020;-81
2021/05/13 10:44:07;;;;;;;0.90;0.90;;;14.20;99.90;;;;;;6319447;28;20028;-81
2021/05/13 10:47:08;;;;;;;0.60;0.60;;;14.10;99.90;;;;;;6319481;28;20493;-81
2021/05/13 10:50:08;;;;;;;2.75;1.25;;;14.10;99.90;;;;;;6301131;28;20042;-82
2021/05/13 10:56:41;;;;;;;1.38;1.27;;;14.40;99.90;;;;;;6321166;28;20050;-82
2021/05/13 11:00:05;;;;;;;1.30;1.20;;;14.30;99.90;;;;;;6301940;28;20032;-83
2021/05/13 11:03:18;;;;;;;1.67;1.33;;;14.30;91.30;;;;;;6320102;28;20020;-81
2021/05/13 11:06:44;;;;;;;0.80;0.80;;;13.90;98.30;;;;;;6318482;28;20028;-81
2021/05/13 11:09:48;;;;;;;1.20;0.98;;;13.70;97.60;;;;;;6318218;28;20044;-81
2021/05/13 11:12:51;;;;;;;0.75;0.75;;;13.60;98.30;;;;;;6319899;28;20036;-83
2021/05/13 11:15:54;;;;;;;1.13;1.05;;;13.50;91.10;;;;;;6302070;28;20374;-82
2021/05/13 11:19:13;;;;;;;;;;;13.20;90.70;;;;;;6283419;28;20386;-81
2021/05/13 11:22:14;;;;;;;0.90;0.90;;;13.40;90.80;;;;;;6317305;28;20382;-80
2021/05/13 11:25:15;;;;;;;3.28;2.00;;;;;;;;;;6280591;28;20031;-80
2021/05/13 11:28:32;;;;;;;0.90;0.90;;;13.40;98.00;;;;;;6314390;28;20449;-81
2021/05/13 11:31:34;;;;;;;1.05;0.93;;;13.30;90.60;;;;;;6318662;28;20051;-79
2021/05/13 11:34:34;;;;;;;0.97;0.97;;;13.20;91.30;;;;;;6301520;28;20365;-81
2021/05/13 11:37:39;;;;;;;0.85;0.85;;;13.40;90.30;;;;;;6284720;28;20028;-80
2021/05/13 11:40:40;;;;;;;1.02;1.00;;;13.30;97.00;;;;;;6284367;28;20032;-81
2021/05/13 11:43:41;;;;;;;1.65;0.85;;;;;;;;;;6300446;28;20024;-79
2021/05/13 11:46:43;;;;;;;1.02;1.02;;;;;;;;;;6318010;28;20102;-79
2021/05/13 11:49:45;;;;;;;1.13;1.13;;;;;;;;;;6300152;28;20086;-81
2021/05/13 11:53:14;;;;;;;1.10;1.10;;;14.00;96.70;;;;;;6317498;28;20020;-79
2021/05/13 11:56:15;;;;;;;0.80;0.80;;;15.00;97.20;;;;;;6317280;28;20024;-79
2021/05/13 11:59:18;;;;;;;0.73;0.73;;;;;;;;;;6317722;28;20028;-78
2021/05/13 12:02:18;;;;;;;2.75;1.20;;;15.50;85.50;;;;;;6300472;28;20339;-79
2021/05/13 12:05:19;;;;;;;0.98;0.93;;;16.30;96.10;;;;;;6300062;28;20032;-81
2021/05/13 12:08:21;;;;;;;1.45;1.17;;;16.30;97.90;;;;;;6299524;28;20109;-80
2021/05/13 12:11:23;;;;;;;;;;;16.30;90.00;;;;;;6319237;28;20046;-80
2021/05/13 12:14:28;;;;;;;1.33;1.30;;;16.60;87.30;;;;;;6317518;28;20343;-80
2021/05/13 12:17:29;;;;;;;0.90;0.90;;;16.80;96.10;;;;;;6301369;28;20031;-80
2021/05/13 12:20:31;;;;;;;1.65;1.55;;;17.20;96.60;;;;;;6300559;28;20058;-79
2021/05/13 12:23:32;;;;;;;1.50;0.98;;;17.00;87.20;;;;;;6317144;28;20035;-79
2021/05/13 12:26:37;;;;;;;1.38;1.27;;;17.00;90.80;;;;;;6299559;28;20052;-80
2021/05/13 12:29:40;;;;;;;1.90;1.20;;;17.10;90.90;;;;;;6300288;28;20458;-79
2021/05/13 12:32:40;;;;;;;1.13;1.00;;;16.90;94.70;;;;;;6299960;28;20371;-80
2021/05/13 12:35:41;;;;;;;1.70;1.55;;;16.60;94.30;;;;;;6316988;28;20035;-80
2021/05/13 12:38:42;;;;;;;2.13;1.40;;;16.70;82.60;;;;;;6300351;28;20036;-81
2021/05/13 12:41:43;;;;;;;0.98;0.98;;;;;;;;;;6299526;28;20101;-78
2021/05/13 12:44:44;;;;;;;1.25;1.17;;;16.60;93.80;;;;;;6318325;28;20028;-81
2021/05/13 12:47:45;;;;;;;2.47;1.30;;;;;;;;;;6316632;28;20486;-80
2021/05/13 12:51:00;;;;;;;0.93;0.93;;;16.90;97.70;;;;;;6316643;28;20023;-80
2021/05/13 12:54:01;;;;;;;1.35;1.25;;;16.80;95.10;;;;;;6316792;28;20028;-79
2021/05/13 12:57:20;;;;;;;2.78;0.85;;;17.00;99.90;;;;;;6316366;28;20039;-79
2021/05/13 13:00:20;;;;;;;1.15;1.00;;;17.40;94.30;;;;;;6299751;28;20038;-78
2021/05/13 13:03:29;;;;;;;1.33;1.25;;;17.10;81.20;;;;;;6299931;28;20028;-78
2021/05/13 13:06:29;;;;;;;1.40;1.30;;;16.50;99.90;;;;;;6315185;28;20056;-78
2021/05/13 13:09:31;;;;;;;2.45;1.10;;;16.30;98.30;;;;;;6315439;28;20243;-79
2021/05/13 13:12:32;;;;;;;0.98;0.93;;;;;;;;;;6284041;28;20377;-78
2021/05/13 13:15:44;;;;;;;1.90;1.45;;;15.60;94.70;;;;;;6322832;28;20043;-78
2021/05/13 13:18:45;;;;;;;;;;;15.70;92.30;;;;;;6305938;28;20032;-78
2021/05/13 13:21:58;;;;;;;1.58;1.13;;;15.40;92.60;;;;;;6321353;28;19911;-78
2021/05/13 13:25:09;;;;;;;2.72;1.30;;;15.40;92.90;;;;;;6288213;28;20038;-80
2021/05/13 13:28:10;;;;;;;1.73;1.00;;;;;;;;;;6305052;28;20131;-79
2021/05/13 13:31:17;;;;;;;2.08;1.35;;;;;;;;;;6321580;28;20035;-78
2021/05/13 13:34:18;;;;;;;1.58;1.02;;;;;;;;;;6305268;28;20020;-78
2021/05/13 13:37:19;;;;;;;1.48;1.20;;;;;;;;;;6322667;28;20110;-79
2021/05/13 13:40:20;;;;;;;1.30;1.20;;;15.10;90.00;;;;;;6322319;28;20038;-79
2021/05/13 13:43:25;;;;;;;1.30;1.20;;;15.60;78.90;;;;;;6304305;28;20051;-79
2021/05/13 13:46:26;;;;;;;1.25;1.15;;;15.20;83.50;;;;;;6304206;28;20028;-79
2021/05/13 13:49:26;;;;;;;1.83;1.50;;;15.20;84.90;;;;;;6320587;28;20040;-80
2021/05/13 13:52:27;;;;;;;2.10;1.50;;;15.30;86.10;;;;;;6321924;28;20115;-78
2021/05/13 13:55:27;;;;;;;1.52;1.35;;;15.20;84.40;;;;;;6303627;28;20067;-78
2021/05/13 13:58:31;;;;;;;3.03;1.90;;;15.30;84.70;;;;;;6304637;28;20030;-81
2021/05/13 14:01:32;;;;;;;2.40;1.45;;;14.90;95.70;;;;;;6304358;28;20103;-78
2021/05/13 14:04:32;;;;;;;1.73;1.40;;;14.80;85.70;;;;;;6320442;28;20563;-78
2021/05/13 14:07:33;;;;;;;1.63;1.52;;;;;;;;;;6319832;28;20548;-79
2021/05/13 14:10:34;;;;;;;1.85;1.60;;;14.00;96.50;;;;;;6320425;28;20427;-77
2021/05/13 14:13:34;;;;;;;1.63;1.27;;;13.70;97.00;;;;;;6320092;28;20076;-78
2021/05/13 14:16:35;;;;;;;1.90;1.60;;;;;;;;;;6320066;28;20034;-78
2021/05/13 14:19:36;;;;;;;1.55;1.45;;;13.60;87.90;;;;;;6302441;28;20039;-78
2021/05/13 14:22:36;;;;;;;3.72;1.70;;;14.30;96.50;;;;;;6302054;28;20028;-78
2021/05/13 14:25:37;;;;;;;1.92;1.52;;;14.50;96.10;;;;;;6319133;28;20043;-78
2021/05/13 14:28:38;;;;;;;1.45;1.35;;;;;;;;;;6302817;28;20063;-78
2021/05/13 14:31:38;;;;;;;2.83;1.58;;;15.20;87.00;;;;;;6319500;28;20055;-78
2021/05/13 14:34:41;;;;;;;3.88;1.55;;;15.20;84.80;;;;;;6319405;28;20066;-78
2021/05/13 14:37:41;;;;;;;1.80;1.70;;;15.50;94.20;;;;;;6320970;28;20032;-78
2021/05/13 14:40:42;;;;;;;2.60;1.77;;;15.40;81.50;;;;;;6302424;28;20174;-78
2021/05/13 14:43:43;;;;;;;1.30;1.20;;;14.70;94.30;;;;;;6319302;28;20032;-79
2021/05/13 14:46:43;;;;;;;2.28;2.00;;;14.70;94.70;;;;;;6320289;28;20118;-77
2021/05/13 14:49:44;;;;;;;1.48;1.38;;;14.70;94.80;;;;;;6319164;28;20063;-78
2021/05/13 14:52:44;;;;;;;2.03;1.70;;;14.70;83.50;;;;;;6320163;28;20035;-78
2021/05/13 14:55:45;;;;;;;1.70;1.60;;;14.80;95.70;;;;;;6318783;28;20028;-78
2021/05/13 14:58:49;;;;;;;1.63;1.48;;;14.70;95.40;;;;;;6301939;28;20545;-80
2021/05/13 15:01:52;;;;;;;1.85;1.73;;;14.90;95.60;;;;;;6318043;28;20028;-80
2021/05/13 15:04:53;;;;;;;1.42;1.33;;;14.80;84.50;;;;;;6286181;28;20536;-82
2021/05/13 15:07:53;;;;;;;1.27;1.23;;;;;;;;;;6317857;28;20126;-82
2021/05/13 15:10:55;;;;;;;1.20;1.20;;;;;;;;;;6316323;28;20027;-83
2021/05/13 15:13:55;;;;;;;1.25;1.10;;;14.90;80.70;;;;;;6317929;28;20074;-83
2021/05/13 15:16:56;;;;;;;1.45;1.35;;;15.00;95.30;;;;;;6301851;28;20466;-82
2021/05/13 15:19:57;;;;;;;1.45;1.30;;;;;;;;;;6318502;28;20027;-83
2021/05/13 15:22:57;;;;;;;2.88;1.70;;;14.60;93.90;;;;;;6317855;28;20028;-83
2021/05/13 15:25:58;;;;;;;2.13;1.42;;;;;;;;;;6300713;28;20086;-83
2021/05/13 15:28:59;;;;;;;1.80;1.70;;;14.80;78.40;;;;;;6318196;28;20040;-83
2021/05/13 15:32:01;;;;;;;2.08;1.88;;;14.80;82.90;;;;;;6301422;28;21168;-83
2021/05/13 15:35:02;;;;;;;2.08;1.88;;;14.60;94.30;;;;;;6285171;28;20032;-83
2021/05/13 15:38:03;;;;;;;1.98;1.70;;;;;;;;;;6284976;28;20143;-83
2021/05/13 15:41:04;;;;;;;3.60;1.80;;;14.60;77.80;;;;;;6318165;28;20024;-82
2021/05/13 15:44:05;;;;;;;2.67;1.65;;;14.20;94.40;;;;;;6318388;28;20382;-84
2021/05/13 15:47:08;;;;;;;1.42;1.35;;;;;;;;;;6301378;28;20032;-82
2021/05/13 15:50:09;;;;;;;1.95;1.60;;;14.60;94.40;;;;;;6301347;28;20385;-83
2021/05/13 15:53:10;;;;;;;1.70;1.60;;;14.70;93.60;;;;;;6284551;28;20032;-83
2021/05/13 15:56:13;;;;;;;2.42;1.95;;;14.80;94.00;;;;;;6301086;28;20466;-82
2021/05/13 15:59:13;;;;;;;2.67;1.73;;;14.90;92.80;;;;;;6284629;28;20024;-83
2021/05/13 16:02:14;;;;;;;1.88;1.55;;;;;;;;;;6300567;28;20103;-83
2021/05/13 16:05:15;;;;;;;3.03;1.77;;;14.90;93.60;;;;;;6317770;28;20024;-83
2021/05/13 16:08:16;;;;;;;2.67;1.90;;;15.10;80.50;;;;;;6283889;28;20051;-83
2021/05/13 16:11:20;;;;;;;1.70;1.60;;;;;;;;;;6300836;28;20500;-81
2021/05/13 16:14:22;;;;;;;2.40;1.70;;;15.00;93.30;;;;;;6317930;28;20026;-83
2021/05/13 16:17:22;;;;;;;2.92;1.92;;;14.80;97.70;;;;;;6300461;28;20110;-79
2021/05/13 16:20:23;;;;;;;1.95;1.80;;;14.70;92.70;;;;;;6300328;28;20453;-79
2021/05/13 16:23:24;;;;;;;3.00;2.10;;;;;;;;;;6283538;28;20028;-83
2021/05/13 16:26:24;;;;;;;2.22;1.80;;;14.70;93.20;;;;;;6317090;28;20024;-80
2021/05/13 16:29:25;;;;;;;1.92;1.75;;;;;;;;;;6318065;28;20113;-80
2021/05/13 16:32:26;;;;;;;1.90;1.70;;;14.90;99.00;;;;;;6315629;28;20020;-80
2021/05/13 16:35:27;;;;;;;2.03;1.80;;;15.40;91.30;;;;;;6298616;28;20039;-79
2021/05/13 16:38:28;;;;;;;3.03;2.15;;;;;;;;;;6317237;28;20067;-80
2021/05/13 16:41:29;;;;;;;12.07;2.45;;;;;;;;;;6316360;28;20522;-85
2021/05/13 16:44:30;;;;;;;10.65;2.22;;;;;;;;;;6317266;28;20027;-83
2021/05/13 16:47:32;;;;;;;1.65;1.55;;;;;;;;;;6316600;28;20028;-83